Time;durP1;ratioP1;P1;durP2;ratioP2;P2;SDS_P1;SDS_P2;PMS_P1;PMS_P2;Temp;Humidity;BMP_temperature;BMP_pressure;BME280_temperature;BME280_humidity;BME280_pressure;Samples;Min_cycle;Max_cycle;Signal;HPM_P1;HPM_P2
2022/04/04 00:00:12;;;;;;;39.87;17.53;;;8.30;99.90;;;;;;5031311;28;20280;-66
2022/04/04 00:02:38;;;;;;;4.53;1.73;;;8.30;99.90;;;;;;5030960;28;20166;-64
2022/04/04 00:05:05;;;;;;;7.63;2.60;;;8.20;99.90;;;;;;5030955;28;20182;-65
2022/04/04 00:07:31;;;;;;;7.90;1.47;;;8.20;99.90;;;;;;5031022;28;20202;-65
2022/04/04 00:09:57;;;;;;;12.47;4.90;;;8.30;99.90;;;;;;5030068;28;20188;-66
2022/04/04 00:12:23;;;;;;;7.17;1.30;;;8.20;99.90;;;;;;5031397;28;20169;-66
2022/04/04 00:14:49;;;;;;;4.20;1.00;;;8.20;99.90;;;;;;5031336;28;20177;-66
2022/04/04 00:17:15;;;;;;;10.63;2.30;;;8.20;99.90;;;;;;5030957;28;20182;-66
2022/04/04 00:19:41;;;;;;;4.80;2.10;;;8.30;99.90;;;;;;5031385;28;20539;-67
2022/04/04 00:22:07;;;;;;;6.23;1.13;;;8.30;99.90;;;;;;5031001;28;20174;-67
2022/04/04 00:24:33;;;;;;;7.60;1.13;;;8.30;99.90;;;;;;5031264;28;20209;-66
2022/04/04 00:27:00;;;;;;;2.37;0.90;;;8.30;99.90;;;;;;5030659;28;20184;-66
2022/04/04 00:29:25;;;;;;;4.90;0.97;;;8.30;99.90;;;;;;5031089;28;20233;-66
2022/04/04 00:31:53;;;;;;;8.00;0.90;;;8.30;99.90;;;;;;5029525;28;20644;-67
2022/04/04 00:34:19;;;;;;;5.10;1.03;;;8.40;99.90;;;;;;5031269;28;20264;-67
2022/04/04 00:36:45;;;;;;;5.83;0.93;;;8.30;99.90;;;;;;5030464;28;20248;-67
2022/04/04 00:39:11;;;;;;;5.77;1.00;;;8.30;99.90;;;;;;5030767;28;20780;-67
2022/04/04 00:41:37;;;;;;;5.37;1.10;;;8.40;99.90;;;;;;5030652;28;20192;-67
2022/04/04 00:44:04;;;;;;;1.87;0.70;;;8.40;99.90;;;;;;5046203;28;20181;-68
2022/04/04 00:46:29;;;;;;;4.73;1.10;;;8.40;99.90;;;;;;5030369;28;20636;-68
2022/04/04 00:48:55;;;;;;;7.63;1.40;;;8.40;99.90;;;;;;5030927;28;20217;-68
2022/04/04 00:51:22;;;;;;;5.63;1.00;;;8.40;99.90;;;;;;5030690;28;20657;-68
2022/04/04 00:53:49;;;;;;;5.63;1.67;;;8.40;99.90;;;;;;5030421;28;20257;-68
2022/04/04 00:56:16;;;;;;;5.77;1.10;;;8.40;99.90;;;;;;5030072;28;20651;-67
2022/04/04 00:58:41;;;;;;;3.00;0.97;;;8.50;99.90;;;;;;5030260;28;20224;-67
2022/04/04 01:01:07;;;;;;;7.17;1.23;;;8.50;99.90;;;;;;5028965;28;20649;-67
2022/04/04 01:03:33;;;;;;;7.47;0.80;;;8.50;99.90;;;;;;5030803;28;20181;-67
2022/04/04 01:05:59;;;;;;;4.53;1.13;;;8.50;99.90;;;;;;5030296;28;20677;-67
2022/04/04 01:08:26;;;;;;;9.73;1.53;;;8.50;99.90;;;;;;5030264;28;20240;-68
2022/04/04 01:10:52;;;;;;;7.43;1.10;;;8.50;99.90;;;;;;5030329;28;20224;-68
2022/04/04 01:13:18;;;;;;;7.07;1.60;;;8.50;99.90;;;;;;5030205;28;20562;-68
2022/04/04 01:15:44;;;;;;;5.47;1.30;;;8.50;99.90;;;;;;5030330;28;20177;-65
2022/04/04 01:18:10;;;;;;;4.20;0.90;;;8.50;99.90;;;;;;5030335;28;20184;-65
2022/04/04 01:20:37;;;;;;;3.90;1.00;;;8.50;99.90;;;;;;5030251;28;20660;-65
2022/04/04 01:23:05;;;;;;;5.47;1.30;;;8.50;99.90;;;;;;5029872;28;20185;-67
2022/04/04 01:25:33;;;;;;;7.87;1.07;;;8.50;99.90;;;;;;5029997;28;20217;-66
2022/04/04 01:28:01;;;;;;;7.20;1.70;;;8.50;99.90;;;;;;5029887;28;20210;-66
2022/04/04 01:30:27;;;;;;;6.57;1.40;;;8.50;99.90;;;;;;5029850;28;20173;-66
2022/04/04 01:32:56;;;;;;;5.67;1.23;;;8.50;99.90;;;;;;5029643;28;20180;-66
2022/04/04 01:35:22;;;;;;;5.77;1.17;;;8.50;99.90;;;;;;5029483;28;20170;-66
2022/04/04 01:37:49;;;;;;;9.63;1.20;;;8.50;99.90;;;;;;5030207;28;20173;-67
2022/04/04 01:40:15;;;;;;;11.47;1.43;;;8.50;99.90;;;;;;5029980;28;20191;-66
2022/04/04 01:42:45;;;;;;;6.73;1.10;;;8.50;99.90;;;;;;5029810;28;20180;-62
2022/04/04 01:45:12;;;;;;;6.20;1.10;;;8.50;99.90;;;;;;5029965;28;20186;-62
2022/04/04 01:47:38;;;;;;;9.63;1.87;;;8.40;99.90;;;;;;5029202;28;20222;-62
2022/04/04 01:50:04;;;;;;;7.63;1.43;;;8.40;99.90;;;;;;5030176;28;20170;-62
2022/04/04 01:52:31;;;;;;;2.87;0.80;;;8.40;99.90;;;;;;5029864;28;20178;-62
2022/04/04 01:54:56;;;;;;;5.57;1.40;;;8.30;99.90;;;;;;5029584;28;20177;-62
2022/04/04 01:57:22;;;;;;;8.67;1.30;;;8.30;99.90;;;;;;5029684;28;20176;-62
2022/04/04 01:59:48;;;;;;;6.63;1.30;;;8.30;99.90;;;;;;5029824;28;20189;-62
2022/04/04 02:02:14;;;;;;;7.83;1.27;;;8.20;99.90;;;;;;5029578;28;20174;-62
2022/04/04 02:04:39;;;;;;;2.97;1.10;;;8.10;99.90;;;;;;5029751;28;20182;-62
2022/04/04 02:07:06;;;;;;;4.93;1.07;;;8.00;99.90;;;;;;5028117;28;20182;-62
2022/04/04 02:09:32;;;;;;;7.77;1.27;;;7.90;99.90;;;;;;5029753;28;20213;-62
2022/04/04 02:11:58;;;;;;;8.23;1.30;;;7.80;99.90;;;;;;5029768;28;20308;-62
2022/04/04 02:14:24;;;;;;;7.93;1.50;;;7.80;99.90;;;;;;5029749;28;20229;-62
2022/04/04 02:16:50;;;;;;;8.30;1.50;;;7.70;99.90;;;;;;5029054;28;20252;-62
2022/04/04 02:19:18;;;;;;;9.10;1.33;;;7.70;99.90;;;;;;5029839;28;20641;-61
2022/04/04 02:21:45;;;;;;;8.13;1.33;;;7.60;99.90;;;;;;5029657;28;20605;-64
2022/04/04 02:24:11;;;;;;;7.07;1.50;;;7.60;99.90;;;;;;5029672;28;20190;-64
2022/04/04 02:26:37;;;;;;;6.97;1.57;;;7.50;99.90;;;;;;5032731;28;20281;-64
2022/04/04 02:29:04;;;;;;;6.60;1.30;;;7.50;99.90;;;;;;5032894;28;20263;-65
2022/04/04 02:31:29;;;;;;;9.93;1.70;;;7.50;99.90;;;;;;5032913;28;20173;-64
2022/04/04 02:33:56;;;;;;;8.63;1.60;;;7.40;99.90;;;;;;5033046;28;20177;-64
2022/04/04 02:36:22;;;;;;;8.70;1.70;;;7.40;99.90;;;;;;5032829;28;20610;-65
2022/04/04 02:38:48;;;;;;;6.67;1.83;;;7.40;99.90;;;;;;5033471;28;20177;-64
2022/04/04 02:41:15;;;;;;;7.50;1.87;;;7.40;99.90;;;;;;5033123;28;20198;-64
2022/04/04 02:43:40;;;;;;;7.23;2.13;;;7.30;99.90;;;;;;5032033;28;20182;-65
2022/04/04 02:46:08;;;;;;;3.50;1.63;;;7.20;99.90;;;;;;5032877;28;20216;-64
2022/04/04 02:48:35;;;;;;;7.87;1.87;;;7.20;99.90;;;;;;5032604;28;20229;-64
2022/04/04 02:51:01;;;;;;;8.20;2.40;;;7.20;99.90;;;;;;5032926;28;20178;-64
2022/04/04 02:53:26;;;;;;;9.10;1.73;;;7.10;99.90;;;;;;5033012;28;20197;-64
2022/04/04 02:58:37;;;;;;;5.73;1.87;;;7.10;99.90;;;;;;5032342;28;20594;-64
2022/04/04 03:01:03;;;;;;;6.43;1.90;;;7.10;99.90;;;;;;5032565;28;20342;-64
2022/04/04 03:03:29;;;;;;;10.33;1.87;;;7.10;99.90;;;;;;5032428;28;20264;-64
2022/04/04 03:05:55;;;;;;;5.77;2.17;;;7.10;99.90;;;;;;5032523;28;20264;-64
2022/04/04 03:08:21;;;;;;;5.20;1.87;;;7.10;99.90;;;;;;5032530;28;20631;-64
2022/04/04 03:10:47;;;;;;;8.43;2.30;;;7.10;99.90;;;;;;5032485;28;20177;-64
2022/04/04 03:13:13;;;;;;;6.10;2.23;;;7.00;99.90;;;;;;5032706;28;20252;-64
2022/04/04 03:15:39;;;;;;;8.73;2.13;;;7.10;99.90;;;;;;5032338;28;20257;-64
2022/04/04 03:18:07;;;;;;;6.50;2.60;;;7.00;99.90;;;;;;5032038;28;20676;-64
2022/04/04 03:20:34;;;;;;;7.17;2.47;;;7.00;99.90;;;;;;5032113;28;20205;-64
2022/04/04 03:23:01;;;;;;;7.47;2.40;;;7.00;99.90;;;;;;5032464;28;20193;-63
2022/04/04 03:25:27;;;;;;;6.10;2.47;;;7.00;99.90;;;;;;5027072;28;20181;-63
2022/04/04 03:27:56;;;;;;;10.03;3.10;;;7.00;99.90;;;;;;5032116;28;20255;-64
2022/04/04 03:30:26;;;;;;;7.63;2.80;;;7.00;99.90;;;;;;5031013;28;20262;-64
2022/04/04 03:32:55;;;;;;;8.77;3.17;;;6.90;99.90;;;;;;5032200;28;20166;-64
2022/04/04 03:35:21;;;;;;;8.97;3.67;;;6.90;99.90;;;;;;5031686;28;20181;-64
2022/04/04 03:37:49;;;;;;;11.23;3.47;;;6.90;99.90;;;;;;5030865;28;20198;-64
2022/04/04 03:40:16;;;;;;;9.63;2.97;;;6.90;99.90;;;;;;5031958;28;20169;-64
2022/04/04 03:42:43;;;;;;;7.37;2.73;;;6.90;99.90;;;;;;5031965;28;20197;-64
2022/04/04 03:45:14;;;;;;;10.93;3.07;;;6.70;99.90;;;;;;5032211;28;20166;-65
2022/04/04 03:47:42;;;;;;;7.37;3.00;;;7.00;99.90;;;;;;5019965;28;20312;-66
2022/04/04 03:50:09;;;;;;;8.50;2.60;;;7.00;99.90;;;;;;5031579;28;20209;-65
2022/04/04 03:52:35;;;;;;;7.10;2.77;;;7.80;99.90;;;;;;5031848;28;20194;-66
2022/04/04 03:55:03;;;;;;;7.83;2.43;;;7.10;99.90;;;;;;5031626;28;20221;-62
2022/04/04 03:57:29;;;;;;;11.57;2.90;;;7.10;99.90;;;;;;5030014;28;20178;-63
2022/04/04 03:59:55;;;;;;;12.93;3.00;;;7.10;99.90;;;;;;5031991;28;20178;-63
2022/04/04 04:02:21;;;;;;;8.00;2.40;;;7.10;99.90;;;;;;5031846;28;20740;-63
2022/04/04 04:04:47;;;;;;;5.17;2.20;;;7.10;99.90;;;;;;5031356;28;20673;-63
2022/04/04 04:07:16;;;;;;;9.93;2.73;;;7.20;99.90;;;;;;5031235;28;20174;-63
2022/04/04 04:09:45;;;;;;;7.90;2.47;;;7.20;99.90;;;;;;5031498;28;20259;-63
2022/04/04 04:12:11;;;;;;;14.50;2.97;;;7.20;99.90;;;;;;5031188;28;20225;-63
2022/04/04 04:14:38;;;;;;;8.87;3.03;;;7.30;99.90;;;;;;5031605;28;20170;-63
2022/04/04 04:17:04;;;;;;;6.97;2.33;;;7.20;99.90;;;;;;5029567;28;20799;-63
2022/04/04 04:22:15;;;;;;;9.07;3.07;;;7.30;99.90;;;;;;5031201;28;20192;-63
2022/04/04 04:24:41;;;;;;;16.20;3.00;;;7.30;99.90;;;;;;5029612;28;20261;-62
2022/04/04 04:27:07;;;;;;;4.67;2.30;;;7.30;99.90;;;;;;5030739;28;20265;-63
2022/04/04 04:29:34;;;;;;;11.73;2.67;;;7.30;99.90;;;;;;5030998;28;20208;-63
2022/04/04 04:31:59;;;;;;;9.60;2.90;;;7.30;99.90;;;;;;5030921;28;20170;-63
2022/04/04 04:34:25;;;;;;;9.57;2.80;;;7.30;99.90;;;;;;5030944;28;20199;-63
2022/04/04 04:36:51;;;;;;;11.73;2.97;;;7.40;99.90;;;;;;5030571;28;20185;-63
2022/04/04 04:39:17;;;;;;;15.70;3.13;;;7.40;99.90;;;;;;5030859;28;20628;-64
2022/04/04 04:41:45;;;;;;;8.80;2.93;;;7.40;99.90;;;;;;5030661;28;20264;-64
2022/04/04 04:44:11;;;;;;;7.40;2.30;;;7.40;99.90;;;;;;5029701;28;20184;-63
2022/04/04 04:46:37;;;;;;;8.60;2.77;;;7.50;99.90;;;;;;5030415;28;20257;-64
2022/04/04 04:49:03;;;;;;;9.70;3.07;;;7.50;99.90;;;;;;5028965;28;20296;-64
2022/04/04 04:51:29;;;;;;;12.10;3.00;;;7.50;99.90;;;;;;5030369;28;20599;-64
2022/04/04 04:53:55;;;;;;;11.03;2.67;;;7.50;99.90;;;;;;5030513;28;20174;-63
2022/04/04 04:56:21;;;;;;;5.23;1.63;;;7.50;99.90;;;;;;5029520;28;20293;-63
2022/04/04 04:58:47;;;;;;;8.90;3.07;;;7.50;99.90;;;;;;5030134;28;20185;-62
2022/04/04 05:01:13;;;;;;;12.43;2.67;;;7.50;99.90;;;;;;5030483;28;20177;-62
2022/04/04 05:03:39;;;;;;;7.90;2.80;;;7.50;99.90;;;;;;5030719;28;20182;-63
2022/04/04 05:06:05;;;;;;;8.53;2.43;;;7.40;99.90;;;;;;5030287;28;20213;-63
2022/04/04 05:08:31;;;;;;;14.77;2.87;;;7.40;99.90;;;;;;5030388;28;20205;-63
2022/04/04 05:10:59;;;;;;;10.50;3.00;;;7.40;99.90;;;;;;5030389;28;20239;-63
2022/04/04 05:13:26;;;;;;;5.97;2.57;;;7.40;99.90;;;;;;5030364;28;20174;-63
2022/04/04 05:15:54;;;;;;;7.87;2.60;;;7.40;99.90;;;;;;5030146;28;20170;-63
2022/04/04 05:18:21;;;;;;;7.83;2.50;;;7.40;99.90;;;;;;5030151;28;20593;-63
2022/04/04 05:20:47;;;;;;;10.93;2.77;;;7.40;99.90;;;;;;5030070;28;20202;-63
2022/04/04 05:23:13;;;;;;;6.00;2.50;;;7.40;99.90;;;;;;5028429;28;20227;-63
2022/04/04 05:25:40;;;;;;;5.47;2.90;;;7.40;99.90;;;;;;5030093;28;20181;-63
2022/04/04 05:28:07;;;;;;;13.13;3.00;;;7.40;99.90;;;;;;5030215;28;20295;-63
2022/04/04 05:30:34;;;;;;;14.70;2.77;;;7.40;99.90;;;;;;5029765;28;20694;-62
2022/04/04 05:33:00;;;;;;;11.20;2.67;;;7.40;99.90;;;;;;5029688;28;20182;-65
2022/04/04 05:35:26;;;;;;;14.73;2.67;;;7.40;99.90;;;;;;5029786;28;20355;-64
2022/04/04 05:37:55;;;;;;;9.80;2.90;;;7.40;99.90;;;;;;5029939;28;20232;-64
2022/04/04 05:40:23;;;;;;;7.87;2.80;;;7.40;99.90;;;;;;5029846;28;20177;-63
2022/04/04 05:42:49;;;;;;;8.07;2.60;;;7.40;99.90;;;;;;5029810;28;20177;-62
2022/04/04 05:45:15;;;;;;;9.07;3.33;;;7.40;99.90;;;;;;5029736;28;20267;-63
2022/04/04 05:47:41;;;;;;;6.43;2.87;;;7.40;99.90;;;;;;5029513;28;20660;-62
2022/04/04 05:50:08;;;;;;;10.17;3.63;;;7.40;99.90;;;;;;5029397;28;20540;-62
2022/04/04 05:52:35;;;;;;;7.43;3.30;;;7.40;99.90;;;;;;5030023;28;20178;-62
2022/04/04 05:55:05;;;;;;;5.77;2.30;;;7.40;99.90;;;;;;5029795;28;20176;-62
2022/04/04 05:57:34;;;;;;;6.57;2.97;;;7.40;99.90;;;;;;5028719;28;20252;-62
2022/04/04 06:00:00;;;;;;;6.97;3.07;;;7.50;99.90;;;;;;5030506;28;20184;-62
2022/04/04 06:02:29;;;;;;;10.17;2.97;;;7.60;99.90;;;;;;5033509;28;20288;-62
2022/04/04 06:04:56;;;;;;;6.27;2.87;;;7.60;99.90;;;;;;5033724;28;20219;-61
2022/04/04 06:07:22;;;;;;;6.47;2.37;;;7.70;99.90;;;;;;5033375;28;20672;-63
2022/04/04 06:09:48;;;;;;;4.77;2.23;;;7.70;99.90;;;;;;5032086;28;20270;-63
2022/04/04 06:12:13;;;;;;;3.50;2.23;;;7.80;99.90;;;;;;5033250;28;20231;-63
2022/04/04 06:14:39;;;;;;;7.00;2.63;;;7.80;99.90;;;;;;5033434;28;20277;-63
2022/04/04 06:17:05;;;;;;;5.63;1.97;;;7.90;99.90;;;;;;5033356;28;20189;-63
2022/04/04 06:19:35;;;;;;;5.47;2.47;;;8.00;99.90;;;;;;5033322;28;20232;-63
2022/04/04 06:22:04;;;;;;;5.00;2.40;;;8.10;99.90;;;;;;5033597;28;20193;-63
2022/04/04 06:24:31;;;;;;;4.70;2.10;;;8.20;99.90;;;;;;5033520;28;20204;-64
2022/04/04 06:27:00;;;;;;;7.97;2.53;;;8.20;99.90;;;;;;5031775;28;20512;-70
2022/04/04 06:29:27;;;;;;;3.93;2.10;;;8.30;99.90;;;;;;5031850;28;20992;-71
2022/04/04 06:31:53;;;;;;;7.47;2.00;;;8.40;99.90;;;;;;5033595;28;20189;-70
2022/04/04 06:34:19;;;;;;;9.33;2.57;;;8.40;99.90;;;;;;5033442;28;20174;-70
2022/04/04 06:36:46;;;;;;;5.57;1.90;;;8.40;99.90;;;;;;5033475;28;20711;-69
2022/04/04 06:39:12;;;;;;;5.00;2.00;;;8.50;99.90;;;;;;5033278;28;20195;-69
2022/04/04 06:41:39;;;;;;;4.23;2.13;;;8.50;99.90;;;;;;5032194;28;20236;-69
2022/04/04 06:44:05;;;;;;;16.77;7.70;;;8.50;99.90;;;;;;5033282;28;20208;-69
2022/04/04 06:46:31;;;;;;;11.10;2.23;;;8.50;99.90;;;;;;5033180;28;20228;-69
2022/04/04 06:48:58;;;;;;;6.03;1.90;;;8.50;99.90;;;;;;5033046;28;20230;-70
2022/04/04 06:51:24;;;;;;;22.80;8.00;;;8.60;99.90;;;;;;5033083;28;20178;-70
2022/04/04 06:53:50;;;;;;;17.63;5.33;;;8.70;99.90;;;;;;5033132;28;20174;-70
2022/04/04 06:56:16;;;;;;;24.27;10.37;;;8.70;99.90;;;;;;5033018;28;20181;-72
2022/04/04 06:58:42;;;;;;;8.10;2.20;;;8.70;99.90;;;;;;5032944;28;20503;-68
2022/04/04 07:01:07;;;;;;;18.30;7.40;;;8.80;99.90;;;;;;5032908;28;20655;-65
2022/04/04 07:03:33;;;;;;;9.87;1.77;;;8.80;99.90;;;;;;5032841;28;20170;-66
2022/04/04 07:05:59;;;;;;;4.37;1.53;;;8.90;99.90;;;;;;5032494;28;20237;-65
2022/04/04 07:08:25;;;;;;;5.97;1.40;;;8.90;99.90;;;;;;5031987;28;20266;-64
2022/04/04 07:10:51;;;;;;;10.20;1.70;;;8.90;99.90;;;;;;5032239;28;20220;-64
2022/04/04 07:13:17;;;;;;;3.50;1.20;;;9.00;99.90;;;;;;5032561;28;20193;-66
2022/04/04 07:15:43;;;;;;;4.43;1.10;;;9.10;99.90;;;;;;5032613;28;20189;-64
2022/04/04 07:18:09;;;;;;;9.77;2.07;;;9.20;99.90;;;;;;5031963;28;20571;-64
2022/04/04 07:20:35;;;;;;;9.87;1.60;;;9.20;99.90;;;;;;5032213;28;20177;-64
2022/04/04 07:23:01;;;;;;;10.50;1.50;;;9.30;99.90;;;;;;5032242;28;20641;-65
2022/04/04 07:25:28;;;;;;;7.30;1.30;;;9.40;99.90;;;;;;5031736;28;20656;-62
2022/04/04 07:27:54;;;;;;;5.43;1.23;;;9.50;99.90;;;;;;5030922;28;20209;-63
2022/04/04 07:30:23;;;;;;;9.20;2.20;;;9.50;99.90;;;;;;5032360;28;20166;-61
2022/04/04 07:32:50;;;;;;;6.50;2.03;;;9.60;99.90;;;;;;5032402;28;20639;-63
2022/04/04 07:35:17;;;;;;;5.13;2.30;;;9.60;99.90;;;;;;5031841;28;20224;-59
2022/04/04 07:37:45;;;;;;;8.00;1.97;;;9.60;99.90;;;;;;5030901;28;20279;-58
2022/04/04 07:40:14;;;;;;;8.00;2.30;;;9.70;99.90;;;;;;5032071;28;20323;-58
2022/04/04 07:42:42;;;;;;;15.70;5.60;;;9.70;99.90;;;;;;5031759;28;20206;-59
2022/04/04 07:45:10;;;;;;;6.10;2.23;;;9.80;99.90;;;;;;5030714;28;20544;-60
2022/04/04 07:47:37;;;;;;;14.03;3.20;;;9.90;99.90;;;;;;5031840;28;20249;-59
2022/04/04 07:50:04;;;;;;;9.40;3.13;;;9.90;99.90;;;;;;5031925;28;20178;-58
2022/04/04 07:52:30;;;;;;;10.27;2.70;;;10.00;99.90;;;;;;5031703;28;20177;-58
2022/04/04 07:54:56;;;;;;;19.27;5.10;;;10.00;99.90;;;;;;5031916;28;20555;-60
2022/04/04 07:57:22;;;;;;;12.90;4.30;;;10.00;99.90;;;;;;5030677;28;20562;-60
2022/04/04 07:59:50;;;;;;;11.63;3.13;;;10.00;99.90;;;;;;5031468;28;20211;-60
2022/04/04 08:02:19;;;;;;;13.20;3.60;;;10.00;99.90;;;;;;5031402;28;20264;-60
2022/04/04 08:04:45;;;;;;;17.33;5.30;;;10.10;99.90;;;;;;5031694;28;20177;-59
2022/04/04 08:07:12;;;;;;;15.23;4.10;;;10.10;99.90;;;;;;5031455;28;20660;-60
2022/04/04 08:09:38;;;;;;;15.47;4.30;;;10.10;99.90;;;;;;5031532;28;20225;-60
2022/04/04 08:12:04;;;;;;;14.70;3.90;;;10.10;99.90;;;;;;5031168;28;20200;-60
2022/04/04 08:14:31;;;;;;;22.40;4.77;;;10.20;99.90;;;;;;5031596;28;20170;-59
2022/04/04 08:16:57;;;;;;;11.27;3.93;;;10.20;99.90;;;;;;5031540;28;20221;-59
2022/04/04 08:19:22;;;;;;;14.93;4.23;;;10.20;99.90;;;;;;5031455;28;20579;-60
2022/04/04 08:21:48;;;;;;;16.50;4.70;;;10.20;99.90;;;;;;5030857;28;20180;-60
2022/04/04 08:24:15;;;;;;;12.27;4.73;;;10.20;99.90;;;;;;5029718;28;20674;-60
2022/04/04 08:26:42;;;;;;;13.53;4.53;;;10.30;99.90;;;;;;5031447;28;20514;-60
2022/04/04 08:29:09;;;;;;;10.30;3.93;;;10.30;99.90;;;;;;5029453;28;20210;-60
2022/04/04 08:31:35;;;;;;;17.43;5.20;;;10.40;99.90;;;;;;5030997;28;20162;-60
2022/04/04 08:34:01;;;;;;;14.87;5.00;;;10.40;99.90;;;;;;5029284;28;20489;-60
2022/04/04 08:36:27;;;;;;;15.90;4.90;;;10.40;99.90;;;;;;5029359;28;20308;-60
2022/04/04 08:38:53;;;;;;;20.00;5.73;;;10.50;99.90;;;;;;5030806;28;20253;-60
2022/04/04 08:41:21;;;;;;;14.03;5.30;;;10.50;99.90;;;;;;5031171;28;20162;-60
2022/04/04 08:43:51;;;;;;;16.23;6.17;;;10.50;99.90;;;;;;5031022;28;20239;-60
2022/04/04 08:46:18;;;;;;;15.03;5.83;;;10.50;99.90;;;;;;5030957;28;20181;-61
2022/04/04 08:48:44;;;;;;;22.00;6.73;;;10.60;99.90;;;;;;5030644;28;20226;-61
2022/04/04 08:51:10;;;;;;;19.00;6.80;;;10.60;99.90;;;;;;5030701;28;20189;-61
2022/04/04 08:53:38;;;;;;;21.73;7.77;;;10.70;99.90;;;;;;5030759;28;20170;-61
2022/04/04 08:56:06;;;;;;;20.77;7.73;;;10.70;99.90;;;;;;5030764;28;20641;-61
2022/04/04 08:58:33;;;;;;;21.40;7.47;;;10.60;99.90;;;;;;5030741;28;20161;-61
2022/04/04 09:00:59;;;;;;;20.73;7.60;;;10.10;99.90;;;;;;5030625;28;20174;-61
2022/04/04 09:03:30;;;;;;;21.97;8.30;;;10.70;99.90;;;;;;5030576;28;20180;-60
2022/04/04 09:06:05;;;;;;;20.50;8.60;;;10.70;99.90;;;;;;5029323;28;20632;-60
2022/04/04 09:08:46;;;;;;;23.50;9.43;;;10.70;99.90;;;;;;5029240;28;20213;-60
2022/04/04 09:11:13;;;;;;;25.03;9.20;;;10.80;99.90;;;;;;5030622;28;20585;-60
2022/04/04 09:13:39;;;;;;;25.73;9.17;;;10.80;99.90;;;;;;5029241;28;20231;-60
2022/04/04 09:16:07;;;;;;;24.17;8.93;;;10.90;99.90;;;;;;5030468;28;20174;-61
2022/04/04 09:18:41;;;;;;;22.93;9.50;;;10.90;99.90;;;;;;5030522;28;20186;-60
2022/04/04 09:21:34;;;;;;;32.27;9.97;;;10.90;99.90;;;;;;5030404;28;20667;-60
2022/04/04 09:24:06;;;;;;;28.50;11.20;;;11.00;99.90;;;;;;5029981;28;20182;-60
2022/04/04 09:26:43;;;;;;;28.67;11.33;;;11.10;99.90;;;;;;5030217;28;20182;-61
2022/04/04 09:29:20;;;;;;;27.67;10.57;;;11.20;99.90;;;;;;5030194;28;20253;-61
2022/04/04 09:31:52;;;;;;;34.43;12.03;;;11.40;99.90;;;;;;5030379;28;20544;-61
2022/04/04 09:34:19;;;;;;;26.53;11.83;;;11.80;99.90;;;;;;5030189;28;20193;-61
2022/04/04 09:36:46;;;;;;;29.30;11.97;;;11.40;99.90;;;;;;5028866;28;20178;-60
2022/04/04 09:39:14;;;;;;;33.43;12.93;;;11.50;99.90;;;;;;5030198;28;20170;-60
2022/04/04 09:41:40;;;;;;;29.70;12.37;;;11.50;99.90;;;;;;5030234;28;20644;-61
2022/04/04 09:44:07;;;;;;;27.73;11.73;;;11.40;99.90;;;;;;5030233;28;20177;-61
2022/04/04 09:46:38;;;;;;;29.27;11.93;;;11.50;99.90;;;;;;5028951;28;20172;-61
2022/04/04 09:49:07;;;;;;;28.93;11.90;;;11.50;99.90;;;;;;5029938;28;20288;-59
2022/04/04 09:51:54;;;;;;;29.17;11.40;;;11.40;99.90;;;;;;5029988;28;20162;-60
2022/04/04 09:54:28;;;;;;;25.07;11.80;;;11.40;99.90;;;;;;5029775;28;20184;-60
2022/04/04 09:57:09;;;;;;;22.57;11.63;;;11.50;99.90;;;;;;5030006;28;20532;-60
2022/04/04 09:59:37;;;;;;;25.90;10.47;;;11.50;99.90;;;;;;5029907;28;20220;-61
2022/04/04 10:02:03;;;;;;;24.97;11.50;;;11.50;99.90;;;;;;5029976;28;20675;-61
2022/04/04 10:04:31;;;;;;;32.17;11.63;;;11.50;99.90;;;;;;5029783;28;20205;-61
2022/04/04 10:07:02;;;;;;;27.87;10.37;;;11.50;99.90;;;;;;5028722;28;20632;-61
2022/04/04 10:09:29;;;;;;;28.93;10.53;;;11.50;99.90;;;;;;5029951;28;20595;-61
2022/04/04 10:11:55;;;;;;;25.83;10.70;;;11.60;99.90;;;;;;5030079;28;20266;-61
2022/04/04 10:14:21;;;;;;;29.70;10.40;;;11.60;99.90;;;;;;5029850;28;20196;-61
2022/04/04 10:16:48;;;;;;;26.87;11.20;;;11.80;99.90;;;;;;5029915;28;20240;-61
2022/04/04 10:19:15;;;;;;;21.17;10.73;;;11.90;99.90;;;;;;5029922;28;20166;-61
2022/04/04 10:21:41;;;;;;;26.67;11.43;;;12.10;99.90;;;;;;5029902;28;20227;-61
2022/04/04 10:24:09;;;;;;;19.80;10.00;;;12.40;99.90;;;;;;5029862;28;20166;-61
2022/04/04 10:26:36;;;;;;;26.80;11.03;;;12.60;99.90;;;;;;5029750;28;20166;-61
2022/04/04 10:29:14;;;;;;;25.17;10.90;;;13.10;99.90;;;;;;5029607;28;20209;-61
2022/04/04 10:31:57;;;;;;;21.38;10.25;;;13.70;99.90;;;;;;5029732;28;20536;-61
2022/04/04 10:34:25;;;;;;;16.08;9.38;;;14.10;99.90;;;;;;5029680;28;20170;-61
2022/04/04 10:37:03;;;;;;;18.80;8.75;;;14.20;99.90;;;;;;5028412;28;20641;-61
2022/04/04 10:39:44;;;;;;;18.52;8.23;;;14.60;99.90;;;;;;5029684;28;20166;-61
2022/04/04 10:42:32;;;;;;;14.38;7.50;;;14.90;99.90;;;;;;5029608;28;20185;-62
2022/04/04 10:45:09;;;;;;;16.38;7.57;;;15.10;99.90;;;;;;5029724;28;20190;-61
2022/04/04 10:47:42;;;;;;;15.32;7.57;;;15.30;99.90;;;;;;5032576;28;20751;-61
2022/04/04 10:50:28;;;;;;;16.83;6.90;;;15.40;99.90;;;;;;5033406;28;20182;-62
2022/04/04 10:52:58;;;;;;;16.98;7.13;;;15.50;99.90;;;;;;5033071;28;20180;-61
2022/04/04 10:55:27;;;;;;;13.60;7.43;;;15.60;99.90;;;;;;5033151;28;20170;-62
2022/04/04 10:58:17;;;;;;;16.00;6.80;;;15.70;99.90;;;;;;5033019;28;20170;-64
2022/04/04 11:01:09;;;;;;;12.18;6.95;;;15.70;99.90;;;;;;5031789;28;20583;-61
2022/04/04 11:03:40;;;;;;;13.07;6.28;;;15.00;99.90;;;;;;5032837;28;20177;-61
2022/04/04 11:09:18;;;;;;;20.90;7.00;;;15.50;99.90;;;;;;5032842;28;20559;-61
2022/04/04 11:11:49;;;;;;;19.80;7.47;;;15.80;99.90;;;;;;5032690;28;20220;-61
2022/04/04 11:14:42;;;;;;;12.93;6.70;;;15.90;99.90;;;;;;5032854;28;20185;-60
2022/04/04 11:19:57;;;;;;;14.93;6.00;;;16.00;99.90;;;;;;5032697;28;20189;-62
2022/04/04 11:22:28;;;;;;;15.43;6.53;;;15.30;99.90;;;;;;5032632;28;20166;-60
2022/04/04 11:25:04;;;;;;;15.10;5.85;;;15.90;99.90;;;;;;5032499;28;20174;-62
2022/04/04 11:27:37;;;;;;;17.05;5.55;;;16.70;99.90;;;;;;5032735;28;20200;-61
2022/04/04 11:30:10;;;;;;;15.07;6.22;;;16.80;99.90;;;;;;5032335;28;20225;-61
2022/04/04 11:32:43;;;;;;;13.55;5.88;;;17.10;99.90;;;;;;5032283;28;20220;-61
2022/04/04 11:35:14;;;;;;;11.68;5.82;;;16.10;99.90;;;;;;5032257;28;20166;-61
2022/04/04 11:37:44;;;;;;;12.57;6.43;;;16.20;99.90;;;;;;5032272;28;20629;-61
2022/04/04 11:40:15;;;;;;;13.00;6.43;;;16.20;99.90;;;;;;5032363;28;20273;-61
2022/04/04 11:42:51;;;;;;;16.83;6.47;;;16.50;99.90;;;;;;5032221;28;20562;-62
2022/04/04 11:45:28;;;;;;;16.98;6.57;;;16.20;99.90;;;;;;5030971;28;20170;-61
2022/04/04 11:48:06;;;;;;;16.75;6.40;;;16.90;99.90;;;;;;5032207;28;20698;-62
2022/04/04 11:50:37;;;;;;;13.15;6.28;;;16.90;99.90;;;;;;5032109;28;20174;-61
2022/04/04 11:53:08;;;;;;;14.38;5.63;;;17.10;99.90;;;;;;5032232;28;20527;-61
2022/04/04 11:55:37;;;;;;;12.23;6.07;;;17.30;99.90;;;;;;5032055;28;20162;-61
2022/04/04 11:58:12;;;;;;;12.10;6.47;;;17.40;99.90;;;;;;5030778;28;20210;-63
2022/04/04 12:00:55;;;;;;;14.10;6.32;;;17.70;99.90;;;;;;5031722;28;20253;-61
2022/04/04 12:03:24;;;;;;;12.55;5.82;;;17.40;99.90;;;;;;5031821;28;20177;-61
2022/04/04 12:05:50;;;;;;;14.20;6.28;;;16.60;99.90;;;;;;5031818;28;20244;-62
2022/04/04 12:08:18;;;;;;;20.45;7.70;;;16.10;99.90;;;;;;5031805;28;20200;-60
2022/04/04 12:10:47;;;;;;;13.43;6.88;;;16.00;99.90;;;;;;5031680;28;20177;-61
2022/04/04 12:13:21;;;;;;;17.58;8.00;;;16.60;99.90;;;;;;5031697;28;20170;-60
2022/04/04 12:15:53;;;;;;;21.40;7.78;;;16.60;99.90;;;;;;5031451;28;20173;-60
2022/04/04 12:18:29;;;;;;;16.85;6.93;;;16.90;99.90;;;;;;5031506;28;20170;-61
2022/04/04 12:20:59;;;;;;;11.23;6.78;;;16.80;99.90;;;;;;5031444;28;20565;-61
2022/04/04 12:26:14;;;;;;;8.18;5.50;;;18.50;99.90;;;;;;5031730;28;20582;-61
2022/04/04 12:28:51;;;;;;;12.73;5.90;;;18.90;99.90;;;;;;5031111;28;20216;-61
2022/04/04 12:31:24;;;;;;;12.85;5.38;;;19.20;99.90;;;;;;5029859;28;20364;-61
2022/04/04 12:34:07;;;;;;;8.90;4.47;;;19.40;99.90;;;;;;5031221;28;20170;-61
2022/04/04 12:36:41;;;;;;;9.73;4.93;;;19.40;99.90;;;;;;5031130;28;20257;-60
2022/04/04 12:39:09;;;;;;;10.18;4.65;;;19.60;99.90;;;;;;5031306;28;20169;-60
2022/04/04 12:41:51;;;;;;;11.50;5.07;;;20.20;99.90;;;;;;5030884;28;20227;-61
2022/04/04 12:44:25;;;;;;;8.88;4.40;;;20.50;99.90;;;;;;5030916;28;20184;-61
2022/04/04 12:47:08;;;;;;;8.60;4.18;;;20.20;99.90;;;;;;5030775;28;20167;-61
2022/04/04 12:49:35;;;;;;;7.90;3.53;;;20.40;99.90;;;;;;5031303;28;20296;-61
2022/04/04 12:52:06;;;;;;;12.73;3.90;;;20.40;99.90;;;;;;5031134;28;20169;-61
2022/04/04 12:54:36;;;;;;;7.30;3.67;;;20.20;99.90;;;;;;5031027;28;20235;-61
2022/04/04 12:57:08;;;;;;;8.30;3.90;;;20.10;99.90;;;;;;5030887;28;20588;-61
2022/04/04 12:59:51;;;;;;;12.18;3.92;;;19.70;99.90;;;;;;5030923;28;20587;-61
2022/04/04 13:02:17;;;;;;;11.20;3.67;;;19.20;99.90;;;;;;5030734;28;20173;-61
2022/04/04 13:04:43;;;;;;;9.80;3.78;;;19.00;99.90;;;;;;5030817;28;20240;-61
2022/04/04 13:07:20;;;;;;;14.95;3.88;;;18.30;99.90;;;;;;5030526;28;20166;-61